createdAt,value
2022-07-28T00:01:09.371Z,12.57
2022-07-28T00:06:16.554Z,12.57
2022-07-28T00:11:23.768Z,12.24
2022-07-28T00:16:30.983Z,12.57
2022-07-28T00:21:38.143Z,12.57
2022-07-28T00:26:46.797Z,12.57
2022-07-28T00:31:52.525Z,12.57
2022-07-28T00:36:59.700Z,12.57
2022-07-28T00:42:06.977Z,12.57
2022-07-28T00:47:14.198Z,12.57
2022-07-28T00:52:21.371Z,12.57
2022-07-28T00:57:28.555Z,12.90
2022-07-28T01:02:35.895Z,12.90
2022-07-28T01:07:43.047Z,12.90
2022-07-28T01:12:50.327Z,12.90
2022-07-28T01:17:57.549Z,12.90
2022-07-28T01:23:04.782Z,12.90
2022-07-28T01:28:11.972Z,11.99
2022-07-28T01:33:19.189Z,11.99
2022-07-28T01:38:26.441Z,11.99
2022-07-28T01:43:33.627Z,11.99
2022-07-28T01:48:41.034Z,11.99
2022-07-28T01:53:48.101Z,11.99
2022-07-28T01:58:55.352Z,11.99
2022-07-28T02:04:02.629Z,12.31
2022-07-28T02:09:09.847Z,12.31
2022-07-28T02:14:17.650Z,12.31
2022-07-28T02:19:24.211Z,12.31
2022-07-28T02:24:31.409Z,12.31
2022-07-28T02:29:50.692Z,12.31
2022-07-28T02:34:45.761Z,12.31
2022-07-28T02:39:58.714Z,12.31
2022-07-28T02:45:00.140Z,11.99
2022-07-28T02:50:07.342Z,12.31
2022-07-28T02:55:14.667Z,12.31
2022-07-28T03:00:21.920Z,12.31
2022-07-28T03:05:29.171Z,12.31
2022-07-28T03:10:36.313Z,12.31
2022-07-28T03:15:43.535Z,12.31
2022-07-28T03:20:50.738Z,12.31
2022-07-28T03:25:57.932Z,12.31
2022-07-28T03:31:05.181Z,12.31
2022-07-28T03:36:12.307Z,12.31
2022-07-28T03:41:19.485Z,12.62
2022-07-28T03:46:26.778Z,12.31
2022-07-28T03:51:34.575Z,12.31
2022-07-28T03:56:41.883Z,12.31
2022-07-28T04:01:49.170Z,12.31
2022-07-28T04:06:56.372Z,12.31
2022-07-28T04:12:03.628Z,11.40
2022-07-28T04:17:10.934Z,12.31
2022-07-28T04:22:18.066Z,11.71
2022-07-28T04:27:25.366Z,11.40
2022-07-28T04:32:32.543Z,11.40
2022-07-28T04:37:39.809Z,11.40
2022-07-28T04:42:47.030Z,11.71
2022-07-28T04:47:54.284Z,11.40
2022-07-28T04:53:01.544Z,12.31
2022-07-28T04:58:09.411Z,11.71
2022-07-28T05:03:16.074Z,11.71
2022-07-28T05:08:25.626Z,11.71
2022-07-28T05:13:33.938Z,12.01
2022-07-28T05:18:37.690Z,12.01
2022-07-28T05:23:47.624Z,11.71
2022-07-28T05:28:52.060Z,12.62
2022-07-28T05:33:59.250Z,11.71
2022-07-28T05:39:06.446Z,11.71
2022-07-28T05:44:13.976Z,12.01
2022-07-28T05:49:20.962Z,12.01
2022-07-28T05:54:28.083Z,12.01
2022-07-28T05:59:35.304Z,12.01
2022-07-28T06:04:42.475Z,12.01
2022-07-28T06:09:49.649Z,12.93
2022-07-28T06:14:56.893Z,13.24
2022-07-28T06:20:04.532Z,12.32
2022-07-28T06:25:11.814Z,12.93
2022-07-28T06:30:18.974Z,12.93
2022-07-28T06:35:26.148Z,12.93
2022-07-28T06:40:33.383Z,12.93
2022-07-28T06:45:40.551Z,12.93
2022-07-28T06:50:47.733Z,12.93
2022-07-28T06:55:54.918Z,12.93
2022-07-28T07:01:02.223Z,12.93
2022-07-28T07:06:09.387Z,12.93
2022-07-28T07:11:16.631Z,12.93
2022-07-28T07:16:23.948Z,12.93
2022-07-28T07:21:31.036Z,13.24
2022-07-28T07:26:38.299Z,13.24
2022-07-28T07:31:45.632Z,12.93
2022-07-28T07:36:53.058Z,12.93
2022-07-28T07:42:00.350Z,13.24
2022-07-28T07:47:07.688Z,12.93
2022-07-28T07:52:15.076Z,12.93
2022-07-28T07:57:22.296Z,12.93
2022-07-28T08:02:29.800Z,12.93
2022-07-28T08:07:37.010Z,13.24
2022-07-28T08:12:44.296Z,13.24
2022-07-28T08:17:51.537Z,13.24
2022-07-28T08:22:58.753Z,13.24
2022-07-28T08:28:05.947Z,13.24
2022-07-28T08:33:13.173Z,13.24
2022-07-28T08:38:20.470Z,13.24
2022-07-28T08:43:27.700Z,12.93
2022-07-28T08:48:35.053Z,12.93
2022-07-28T08:53:42.217Z,12.93
2022-07-28T08:58:49.447Z,12.93
2022-07-28T09:03:56.644Z,12.93
2022-07-28T09:09:03.832Z,12.93
2022-07-28T09:14:11.477Z,13.53
2022-07-28T09:19:18.321Z,14.46
2022-07-28T09:24:25.573Z,14.16
2022-07-28T09:29:32.807Z,14.16
2022-07-28T09:34:40.087Z,14.16
2022-07-28T09:39:47.247Z,14.16
2022-07-28T09:45:20.278Z,14.16
2022-07-28T09:50:01.784Z,14.16
2022-07-28T09:55:08.912Z,14.16
2022-07-28T10:00:16.089Z,14.16
2022-07-28T10:05:23.288Z,13.85
2022-07-28T10:10:30.486Z,13.85
2022-07-28T10:15:37.797Z,14.16
2022-07-28T10:20:45.047Z,13.85
2022-07-28T10:25:52.271Z,13.85
2022-07-28T10:30:59.596Z,13.54
2022-07-28T10:36:06.733Z,13.54
2022-07-28T10:41:13.993Z,13.54
2022-07-28T10:46:21.291Z,13.54
2022-07-28T10:51:30.897Z,13.54
2022-07-28T10:56:35.624Z,13.54
2022-07-28T11:01:50.645Z,13.54
2022-07-28T11:06:50.032Z,14.14
2022-07-28T11:11:57.300Z,14.14
2022-07-28T11:17:04.716Z,14.14
2022-07-28T11:22:11.756Z,14.14
2022-07-28T11:27:18.984Z,14.14
2022-07-28T11:32:26.496Z,14.14
2022-07-28T11:37:33.507Z,14.14
2022-07-28T11:42:40.706Z,14.14
2022-07-28T11:47:47.924Z,14.14
2022-07-28T11:52:55.128Z,14.14
2022-07-28T11:58:02.365Z,14.14
2022-07-28T12:03:09.635Z,14.14
2022-07-28T12:08:16.856Z,14.14
2022-07-28T12:13:24.091Z,14.46
2022-07-28T12:18:31.291Z,14.14
2022-07-28T12:23:44.228Z,14.14
2022-07-28T12:28:45.760Z,14.14
2022-07-28T12:33:53.690Z,14.14
2022-07-28T12:39:00.147Z,14.14
2022-07-28T12:44:07.407Z,13.81
2022-07-28T12:49:14.738Z,14.14
2022-07-28T12:54:21.872Z,14.14
2022-07-28T12:59:29.112Z,13.81
2022-07-28T13:04:36.365Z,13.81
2022-07-28T13:09:43.538Z,13.81
2022-07-28T13:14:50.828Z,13.81
2022-07-28T13:19:58.028Z,13.81
2022-07-28T13:25:05.202Z,13.81
2022-07-28T13:30:12.394Z,13.81
2022-07-28T13:35:20.930Z,13.81
2022-07-28T13:40:26.945Z,13.81
2022-07-28T13:45:34.222Z,14.72
2022-07-28T13:50:41.430Z,14.72
2022-07-28T13:55:48.705Z,14.72
2022-07-28T14:00:56.016Z,14.72
2022-07-28T14:06:03.172Z,14.72
2022-07-28T14:11:10.374Z,14.72
2022-07-28T14:16:17.633Z,14.39
2022-07-28T14:21:24.714Z,14.39
2022-07-28T14:26:36.168Z,14.39
2022-07-28T14:31:39.317Z,14.39
2022-07-28T14:36:47.227Z,14.39
2022-07-28T14:41:53.568Z,14.39
2022-07-28T14:47:00.849Z,14.39
2022-07-28T14:52:07.959Z,14.39
2022-07-28T14:57:15.256Z,14.05
2022-07-28T15:02:28.960Z,14.39
2022-07-28T15:07:29.677Z,14.05
2022-07-28T15:12:36.903Z,14.05
2022-07-28T15:17:44.145Z,14.05
2022-07-28T15:22:51.329Z,14.05
2022-07-28T15:27:58.552Z,14.05
2022-07-28T15:33:05.838Z,14.05
2022-07-28T15:38:13.102Z,14.05
2022-07-28T15:43:23.564Z,14.05
2022-07-28T15:48:27.594Z,14.05
2022-07-28T15:53:34.777Z,14.05
2022-07-28T15:58:41.968Z,14.05
2022-07-28T16:03:49.182Z,14.05
2022-07-28T16:08:56.427Z,14.05
2022-07-28T16:14:03.617Z,14.05
2022-07-28T16:19:31.716Z,13.70
2022-07-28T16:24:18.256Z,13.70
2022-07-28T16:29:25.228Z,13.70
2022-07-28T16:34:32.468Z,13.70
2022-07-28T16:39:39.708Z,13.70
2022-07-28T16:44:46.966Z,13.70
2022-07-28T16:49:54.249Z,13.70
2022-07-28T16:55:01.503Z,13.70
2022-07-28T17:00:08.741Z,13.70
2022-07-28T17:05:15.955Z,13.70
2022-07-28T17:10:27.571Z,13.70
2022-07-28T17:15:30.358Z,13.70
2022-07-28T17:20:37.527Z,14.05
2022-07-28T17:30:52.152Z,13.70
2022-07-28T17:35:59.271Z,14.05
2022-07-28T17:41:06.464Z,14.05
2022-07-28T17:46:13.748Z,14.05
2022-07-28T17:51:20.927Z,14.05
2022-07-28T17:56:28.131Z,14.05
2022-07-28T18:01:35.492Z,14.05
2022-07-28T18:06:42.603Z,14.05
2022-07-28T18:11:57.044Z,14.05
2022-07-28T18:16:56.965Z,14.05
2022-07-28T18:22:04.149Z,14.39
2022-07-28T18:27:11.311Z,13.35
2022-07-28T18:32:18.541Z,12.62
2022-07-28T18:37:25.812Z,12.62
2022-07-28T18:42:33.055Z,13.35
2022-07-28T18:47:46.592Z,13.70
2022-07-28T18:52:47.463Z,14.39
2022-07-28T18:57:54.896Z,14.05
2022-07-28T19:03:02.184Z,14.05
2022-07-28T19:08:09.400Z,14.05
2022-07-28T19:13:16.609Z,14.05
2022-07-28T19:18:23.883Z,14.05
2022-07-28T19:23:31.113Z,14.05
2022-07-28T19:28:38.404Z,14.05
2022-07-28T19:33:45.601Z,13.70
2022-07-28T19:38:52.845Z,13.70
2022-07-28T19:44:00.015Z,14.05
2022-07-28T19:49:07.349Z,13.70
2022-07-28T19:54:15.291Z,13.70
2022-07-28T19:59:21.828Z,13.70
2022-07-28T20:04:29.090Z,13.35
2022-07-28T20:09:36.300Z,13.35
2022-07-28T20:14:43.598Z,13.35
2022-07-28T20:19:50.806Z,13.35
2022-07-28T20:24:58.004Z,13.35
2022-07-28T20:30:05.254Z,13.35
2022-07-28T20:35:12.469Z,13.70
2022-07-28T20:40:19.711Z,13.70
2022-07-28T20:45:26.946Z,13.70
2022-07-28T20:50:34.093Z,13.70
2022-07-28T20:55:41.308Z,13.70
2022-07-28T21:00:48.535Z,13.70
2022-07-28T21:05:55.671Z,13.70
2022-07-28T21:11:02.881Z,13.70
2022-07-28T21:16:10.165Z,13.70
2022-07-28T21:21:17.394Z,13.35
2022-07-28T21:26:24.577Z,13.35
2022-07-28T21:31:31.805Z,13.70
2022-07-28T21:36:39.001Z,13.35
2022-07-28T21:41:46.249Z,13.35
2022-07-28T21:46:53.762Z,13.35
2022-07-28T21:52:00.999Z,13.35
2022-07-28T21:57:20.921Z,13.35
2022-07-28T22:02:15.530Z,13.70
2022-07-28T22:07:22.742Z,13.70
2022-07-28T22:12:29.972Z,13.70
2022-07-28T22:17:37.182Z,13.70
2022-07-28T22:22:44.442Z,13.70
2022-07-28T22:27:51.656Z,13.70
2022-07-28T22:32:58.891Z,13.70
2022-07-28T22:38:06.099Z,13.70
2022-07-28T22:43:13.322Z,13.70
2022-07-28T22:48:20.570Z,13.70
2022-07-28T22:53:27.776Z,12.80
2022-07-28T22:58:35.041Z,12.80
2022-07-28T23:03:42.303Z,12.80
2022-07-28T23:08:49.642Z,12.80
2022-07-28T23:13:56.944Z,12.80
2022-07-28T23:19:04.476Z,12.80
2022-07-28T23:24:11.805Z,12.80
2022-07-28T23:29:18.894Z,12.80
2022-07-28T23:34:26.153Z,12.80
2022-07-28T23:39:33.408Z,12.80
2022-07-28T23:44:40.660Z,12.80
2022-07-28T23:49:47.966Z,12.80
2022-07-28T23:54:56.169Z,12.80
